sensor_id;sensor_type;location;lat;lon;timestamp;P1;durP1;ratioP1;P2;durP2;ratioP2
74278;SDS011;62658;26.660;87.704;2022-08-07T12:12:45;67.43;;;12.95;;
74278;SDS011;62658;26.660;87.704;2022-08-07T12:15:20;69.22;;;11.00;;
74278;SDS011;62658;26.660;87.704;2022-08-07T12:17:51;84.32;;;12.10;;
74278;SDS011;62658;26.660;87.704;2022-08-07T12:20:27;56.80;;;11.32;;
74278;SDS011;62658;26.660;87.704;2022-08-07T12:23:22;39.13;;;10.40;;
74278;SDS011;62658;26.660;87.704;2022-08-07T12:26:16;60.43;;;9.93;;
74278;SDS011;62658;26.660;87.704;2022-08-07T12:32:18;26.10;;;9.35;;
74278;SDS011;62658;26.660;87.704;2022-08-07T12:34:52;51.53;;;8.60;;
74278;SDS011;62658;26.660;87.704;2022-08-07T12:37:21;51.58;;;8.73;;
74278;SDS011;62658;26.660;87.704;2022-08-07T12:39:50;30.00;;;10.55;;
74278;SDS011;62658;26.660;87.704;2022-08-07T12:42:20;38.90;;;11.68;;
74278;SDS011;62658;26.660;87.704;2022-08-07T12:44:50;44.38;;;10.45;;
74278;SDS011;62658;26.660;87.704;2022-08-07T12:47:30;37.78;;;10.90;;
74278;SDS011;62658;26.660;87.704;2022-08-07T12:50:09;47.95;;;10.40;;
74278;SDS011;62658;26.660;87.704;2022-08-07T12:56:17;49.07;;;10.57;;
74278;SDS011;62658;26.660;87.704;2022-08-07T12:58:54;28.98;;;9.82;;
74278;SDS011;62658;26.660;87.704;2022-08-07T13:04:27;111.22;;;16.27;;
74278;SDS011;62658;26.660;87.704;2022-08-07T13:16:26;58.10;;;14.17;;
74278;SDS011;62658;26.660;87.704;2022-08-07T13:19:10;105.63;;;15.32;;
74278;SDS011;62658;26.660;87.704;2022-08-07T13:22:33;52.13;;;11.10;;
74278;SDS011;62658;26.660;87.704;2022-08-07T13:25:28;35.73;;;11.90;;
74278;SDS011;62658;26.660;87.704;2022-08-07T13:28:07;50.50;;;12.00;;
74278;SDS011;62658;26.660;87.704;2022-08-07T13:30:41;65.38;;;13.05;;
74278;SDS011;62658;26.660;87.704;2022-08-07T13:33:19;37.70;;;12.23;;
74278;SDS011;62658;26.660;87.704;2022-08-07T13:38:57;38.55;;;12.50;;
74278;SDS011;62658;26.660;87.704;2022-08-07T13:41:33;31.50;;;12.70;;
74278;SDS011;62658;26.660;87.704;2022-08-07T13:44:09;28.60;;;12.23;;
74278;SDS011;62658;26.660;87.704;2022-08-07T13:46:44;39.77;;;12.70;;
74278;SDS011;62658;26.660;87.704;2022-08-07T13:49:12;26.40;;;11.95;;
74278;SDS011;62658;26.660;87.704;2022-08-07T13:51:44;15.50;;;11.38;;
74278;SDS011;62658;26.660;87.704;2022-08-07T13:54:12;49.17;;;15.20;;
74278;SDS011;62658;26.660;87.704;2022-08-07T13:56:42;121.28;;;29.85;;
74278;SDS011;62658;26.660;87.704;2022-08-07T13:59:12;315.58;;;84.88;;
74278;SDS011;62658;26.660;87.704;2022-08-07T14:01:44;348.20;;;93.95;;
74278;SDS011;62658;26.660;87.704;2022-08-07T14:04:19;302.77;;;75.77;;
74278;SDS011;62658;26.660;87.704;2022-08-07T14:06:51;202.20;;;52.10;;
74278;SDS011;62658;26.660;87.704;2022-08-07T14:09:26;134.45;;;39.35;;
74278;SDS011;62658;26.660;87.704;2022-08-07T14:11:57;89.35;;;29.98;;
74278;SDS011;62658;26.660;87.704;2022-08-07T14:14:28;90.28;;;29.27;;
74278;SDS011;62658;26.660;87.704;2022-08-07T14:16:59;192.18;;;65.53;;
74278;SDS011;62658;26.660;87.704;2022-08-07T14:19:32;149.55;;;51.88;;
74278;SDS011;62658;26.660;87.704;2022-08-07T14:22:09;136.55;;;44.63;;
74278;SDS011;62658;26.660;87.704;2022-08-07T14:24:41;200.97;;;53.00;;
74278;SDS011;62658;26.660;87.704;2022-08-07T14:27:13;164.18;;;48.20;;
74278;SDS011;62658;26.660;87.704;2022-08-07T14:29:47;98.93;;;37.67;;
74278;SDS011;62658;26.660;87.704;2022-08-07T14:32:18;86.45;;;36.78;;
74278;SDS011;62658;26.660;87.704;2022-08-07T14:34:46;97.65;;;36.58;;
74278;SDS011;62658;26.660;87.704;2022-08-07T14:37:15;82.13;;;43.10;;
74278;SDS011;62658;26.660;87.704;2022-08-07T14:42:10;105.18;;;53.17;;
74278;SDS011;62658;26.660;87.704;2022-08-07T14:44:43;113.28;;;56.45;;
74278;SDS011;62658;26.660;87.704;2022-08-07T14:47:14;102.88;;;50.72;;
74278;SDS011;62658;26.660;87.704;2022-08-07T14:49:43;111.38;;;56.10;;
74278;SDS011;62658;26.660;87.704;2022-08-07T14:52:12;88.23;;;55.03;;
74278;SDS011;62658;26.660;87.704;2022-08-07T14:54:42;124.97;;;63.17;;
74278;SDS011;62658;26.660;87.704;2022-08-07T14:57:14;105.00;;;60.25;;
74278;SDS011;62658;26.660;87.704;2022-08-07T14:59:42;85.10;;;47.63;;
74278;SDS011;62658;26.660;87.704;2022-08-07T15:02:11;102.50;;;50.70;;
74278;SDS011;62658;26.660;87.704;2022-08-07T15:04:42;250.10;;;124.25;;
74278;SDS011;62658;26.660;87.704;2022-08-07T15:07:10;219.35;;;109.28;;
74278;SDS011;62658;26.660;87.704;2022-08-07T15:09:48;121.22;;;61.67;;
74278;SDS011;62658;26.660;87.704;2022-08-07T15:12:19;103.60;;;51.22;;
74278;SDS011;62658;26.660;87.704;2022-08-07T15:14:54;106.50;;;47.50;;
74278;SDS011;62658;26.660;87.704;2022-08-07T15:17:29;100.00;;;38.97;;
74278;SDS011;62658;26.660;87.704;2022-08-07T15:20:03;81.70;;;33.27;;
74278;SDS011;62658;26.660;87.704;2022-08-07T15:22:44;45.80;;;25.17;;
74278;SDS011;62658;26.660;87.704;2022-08-07T15:25:15;42.85;;;25.10;;
74278;SDS011;62658;26.660;87.704;2022-08-07T15:27:51;51.03;;;21.65;;
74278;SDS011;62658;26.660;87.704;2022-08-07T15:30:23;73.57;;;27.73;;
74278;SDS011;62658;26.660;87.704;2022-08-07T15:37:50;122.53;;;24.40;;
74278;SDS011;62658;26.660;87.704;2022-08-07T15:40:20;114.82;;;30.13;;
74278;SDS011;62658;26.660;87.704;2022-08-07T15:42:52;68.40;;;26.52;;
74278;SDS011;62658;26.660;87.704;2022-08-07T15:45:27;78.35;;;26.75;;
74278;SDS011;62658;26.660;87.704;2022-08-07T15:48:12;61.88;;;21.48;;
74278;SDS011;62658;26.660;87.704;2022-08-07T15:50:47;49.00;;;18.48;;
74278;SDS011;62658;26.660;87.704;2022-08-07T15:55:57;59.35;;;27.67;;
74278;SDS011;62658;26.660;87.704;2022-08-07T16:01:20;83.38;;;39.88;;
74278;SDS011;62658;26.660;87.704;2022-08-07T16:03:52;62.55;;;44.28;;
74278;SDS011;62658;26.660;87.704;2022-08-07T16:06:42;69.03;;;37.17;;
74278;SDS011;62658;26.660;87.704;2022-08-07T16:10:21;44.38;;;32.45;;
74278;SDS011;62658;26.660;87.704;2022-08-07T16:24:54;83.35;;;31.35;;
74278;SDS011;62658;26.660;87.704;2022-08-07T16:27:32;45.60;;;26.35;;
74278;SDS011;62658;26.660;87.704;2022-08-07T16:30:15;88.03;;;29.02;;
74278;SDS011;62658;26.660;87.704;2022-08-07T16:32:45;13.20;;;10.90;;
74278;SDS011;62658;26.660;87.704;2022-08-07T16:35:16;27.95;;;13.95;;
74278;SDS011;62658;26.660;87.704;2022-08-07T16:38:09;17.15;;;13.07;;
74278;SDS011;62658;26.660;87.704;2022-08-07T16:44:04;24.50;;;10.70;;
74278;SDS011;62658;26.660;87.704;2022-08-07T16:50:15;12.93;;;10.90;;
74278;SDS011;62658;26.660;87.704;2022-08-07T16:55:37;18.53;;;12.97;;
74278;SDS011;62658;26.660;87.704;2022-08-07T16:58:21;30.35;;;14.38;;
74278;SDS011;62658;26.660;87.704;2022-08-07T17:04:30;25.27;;;17.73;;
74278;SDS011;62658;26.660;87.704;2022-08-07T17:07:07;31.10;;;14.73;;
74278;SDS011;62658;26.660;87.704;2022-08-07T17:09:52;16.30;;;14.82;;
74278;SDS011;62658;26.660;87.704;2022-08-07T17:12:42;20.58;;;11.38;;
74278;SDS011;62658;26.660;87.704;2022-08-07T17:15:20;24.23;;;19.40;;
74278;SDS011;62658;26.660;87.704;2022-08-07T17:18:15;14.75;;;13.38;;
74278;SDS011;62658;26.660;87.704;2022-08-07T17:20:52;26.60;;;11.23;;
74278;SDS011;62658;26.660;87.704;2022-08-07T17:23:31;12.48;;;9.43;;
74278;SDS011;62658;26.660;87.704;2022-08-07T17:26:13;14.10;;;10.45;;
74278;SDS011;62658;26.660;87.704;2022-08-07T17:31:38;20.75;;;18.92;;
74278;SDS011;62658;26.660;87.704;2022-08-07T17:37:02;12.63;;;11.43;;
74278;SDS011;62658;26.660;87.704;2022-08-07T17:42:38;22.42;;;13.82;;
74278;SDS011;62658;26.660;87.704;2022-08-07T17:45:20;20.15;;;16.20;;
74278;SDS011;62658;26.660;87.704;2022-08-07T17:48:01;19.00;;;13.52;;
74278;SDS011;62658;26.660;87.704;2022-08-07T17:54:16;46.00;;;27.52;;
74278;SDS011;62658;26.660;87.704;2022-08-07T17:56:21;38.55;;;25.08;;
74278;SDS011;62658;26.660;87.704;2022-08-07T17:59:07;64.30;;;35.65;;
74278;SDS011;62658;26.660;87.704;2022-08-07T18:02:03;94.25;;;52.00;;
74278;SDS011;62658;26.660;87.704;2022-08-07T18:07:43;29.33;;;26.50;;
74278;SDS011;62658;26.660;87.704;2022-08-07T18:13:10;109.97;;;60.15;;
74278;SDS011;62658;26.660;87.704;2022-08-07T18:16:16;101.43;;;50.53;;
74278;SDS011;62658;26.660;87.704;2022-08-07T18:19:42;85.82;;;50.15;;
74278;SDS011;62658;26.660;87.704;2022-08-07T18:22:06;179.63;;;85.82;;
74278;SDS011;62658;26.660;87.704;2022-08-07T18:24:41;69.72;;;46.83;;
74278;SDS011;62658;26.660;87.704;2022-08-07T18:27:27;30.05;;;19.77;;
74278;SDS011;62658;26.660;87.704;2022-08-07T18:33:35;38.83;;;18.42;;
74278;SDS011;62658;26.660;87.704;2022-08-07T18:39:29;55.22;;;39.28;;
74278;SDS011;62658;26.660;87.704;2022-08-07T18:42:19;61.08;;;50.75;;
74278;SDS011;62658;26.660;87.704;2022-08-07T18:45:07;67.75;;;46.20;;
74278;SDS011;62658;26.660;87.704;2022-08-07T18:50:26;54.83;;;43.25;;
74278;SDS011;62658;26.660;87.704;2022-08-07T18:53:23;24.75;;;20.88;;
74278;SDS011;62658;26.660;87.704;2022-08-07T18:56:18;22.77;;;20.63;;
74278;SDS011;62658;26.660;87.704;2022-08-07T18:59:22;15.63;;;14.05;;
74278;SDS011;62658;26.660;87.704;2022-08-07T19:02:24;20.10;;;17.73;;
74278;SDS011;62658;26.660;87.704;2022-08-07T19:05:09;18.60;;;16.67;;
74278;SDS011;62658;26.660;87.704;2022-08-07T19:08:03;14.25;;;12.68;;
74278;SDS011;62658;26.660;87.704;2022-08-07T19:10:36;16.08;;;14.48;;
74278;SDS011;62658;26.660;87.704;2022-08-07T19:16:29;10.52;;;9.60;;
74278;SDS011;62658;26.660;87.704;2022-08-07T19:19:10;12.68;;;10.35;;
74278;SDS011;62658;26.660;87.704;2022-08-07T19:21:46;11.75;;;10.75;;
74278;SDS011;62658;26.660;87.704;2022-08-07T19:24:21;10.85;;;10.00;;
74278;SDS011;62658;26.660;87.704;2022-08-07T19:26:53;13.75;;;10.65;;
74278;SDS011;62658;26.660;87.704;2022-08-07T19:29:22;13.20;;;10.43;;
74278;SDS011;62658;26.660;87.704;2022-08-07T19:31:50;11.25;;;10.45;;
74278;SDS011;62658;26.660;87.704;2022-08-07T19:34:19;11.60;;;10.40;;
74278;SDS011;62658;26.660;87.704;2022-08-07T19:36:50;10.95;;;9.73;;
74278;SDS011;62658;26.660;87.704;2022-08-07T19:39:22;11.43;;;9.68;;
74278;SDS011;62658;26.660;87.704;2022-08-07T19:41:53;9.55;;;8.68;;
74278;SDS011;62658;26.660;87.704;2022-08-07T19:44:26;10.00;;;9.07;;
74278;SDS011;62658;26.660;87.704;2022-08-07T19:47:03;10.55;;;8.85;;
74278;SDS011;62658;26.660;87.704;2022-08-07T19:49:40;9.50;;;8.85;;
74278;SDS011;62658;26.660;87.704;2022-08-07T19:52:09;11.40;;;10.38;;
74278;SDS011;62658;26.660;87.704;2022-08-07T19:54:42;13.07;;;11.75;;
74278;SDS011;62658;26.660;87.704;2022-08-07T19:57:15;11.05;;;10.18;;
74278;SDS011;62658;26.660;87.704;2022-08-07T19:59:47;11.15;;;10.10;;
74278;SDS011;62658;26.660;87.704;2022-08-07T20:04:56;9.05;;;8.45;;
74278;SDS011;62658;26.660;87.704;2022-08-07T20:07:27;46.38;;;13.52;;
74278;SDS011;62658;26.660;87.704;2022-08-07T20:09:56;32.88;;;12.38;;
74278;SDS011;62658;26.660;87.704;2022-08-07T20:12:25;9.65;;;9.05;;
74278;SDS011;62658;26.660;87.704;2022-08-07T20:14:53;12.93;;;9.45;;
74278;SDS011;62658;26.660;87.704;2022-08-07T20:17:22;17.17;;;9.45;;
74278;SDS011;62658;26.660;87.704;2022-08-07T20:19:51;16.92;;;9.05;;
74278;SDS011;62658;26.660;87.704;2022-08-07T20:22:20;10.27;;;8.85;;
74278;SDS011;62658;26.660;87.704;2022-08-07T20:24:54;10.45;;;9.55;;
74278;SDS011;62658;26.660;87.704;2022-08-07T20:27:29;19.27;;;9.43;;
74278;SDS011;62658;26.660;87.704;2022-08-07T20:29:57;9.95;;;8.90;;
74278;SDS011;62658;26.660;87.704;2022-08-07T20:32:30;10.10;;;8.05;;
74278;SDS011;62658;26.660;87.704;2022-08-07T20:35:00;11.68;;;8.10;;
74278;SDS011;62658;26.660;87.704;2022-08-07T20:37:32;15.90;;;10.43;;
74278;SDS011;62658;26.660;87.704;2022-08-07T20:40:02;10.15;;;8.05;;
74278;SDS011;62658;26.660;87.704;2022-08-07T20:42:31;8.70;;;7.40;;
74278;SDS011;62658;26.660;87.704;2022-08-07T20:45:02;21.67;;;9.15;;
74278;SDS011;62658;26.660;87.704;2022-08-07T20:47:32;11.57;;;10.27;;
74278;SDS011;62658;26.660;87.704;2022-08-07T20:50:04;10.73;;;9.98;;
74278;SDS011;62658;26.660;87.704;2022-08-07T20:52:33;11.85;;;8.23;;
74278;SDS011;62658;26.660;87.704;2022-08-07T20:55:00;11.18;;;9.05;;
74278;SDS011;62658;26.660;87.704;2022-08-07T20:57:32;11.55;;;8.95;;
74278;SDS011;62658;26.660;87.704;2022-08-07T21:00:03;7.20;;;6.70;;
74278;SDS011;62658;26.660;87.704;2022-08-07T21:02:30;8.13;;;7.50;;
74278;SDS011;62658;26.660;87.704;2022-08-07T21:05:19;17.13;;;8.27;;
74278;SDS011;62658;26.660;87.704;2022-08-07T21:07:49;7.38;;;6.78;;
74278;SDS011;62658;26.660;87.704;2022-08-07T21:10:21;7.05;;;6.55;;
74278;SDS011;62658;26.660;87.704;2022-08-07T21:12:52;6.97;;;6.17;;
74278;SDS011;62658;26.660;87.704;2022-08-07T21:15:22;6.55;;;6.22;;
74278;SDS011;62658;26.660;87.704;2022-08-07T21:17:50;13.68;;;7.35;;
74278;SDS011;62658;26.660;87.704;2022-08-07T21:20:18;5.75;;;5.35;;
74278;SDS011;62658;26.660;87.704;2022-08-07T21:22:48;10.25;;;9.45;;
74278;SDS011;62658;26.660;87.704;2022-08-07T21:25:23;7.15;;;6.57;;
74278;SDS011;62658;26.660;87.704;2022-08-07T21:28:13;5.78;;;5.35;;
74278;SDS011;62658;26.660;87.704;2022-08-07T21:31:01;6.10;;;5.80;;
74278;SDS011;62658;26.660;87.704;2022-08-07T21:36:27;7.07;;;6.47;;
74278;SDS011;62658;26.660;87.704;2022-08-07T21:39:30;11.30;;;9.48;;
74278;SDS011;62658;26.660;87.704;2022-08-07T21:48:09;48.97;;;33.85;;
74278;SDS011;62658;26.660;87.704;2022-08-07T21:51:06;64.22;;;42.03;;
74278;SDS011;62658;26.660;87.704;2022-08-07T21:53:49;43.85;;;32.63;;
74278;SDS011;62658;26.660;87.704;2022-08-07T21:56:23;55.70;;;39.40;;
74278;SDS011;62658;26.660;87.704;2022-08-07T21:59:07;111.53;;;61.38;;
74278;SDS011;62658;26.660;87.704;2022-08-07T22:04:16;174.07;;;94.38;;
74278;SDS011;62658;26.660;87.704;2022-08-07T22:09:38;388.10;;;220.63;;
74278;SDS011;62658;26.660;87.704;2022-08-07T22:12:13;408.55;;;247.48;;
74278;SDS011;62658;26.660;87.704;2022-08-07T22:15:03;447.58;;;279.95;;
74278;SDS011;62658;26.660;87.704;2022-08-07T22:17:54;288.30;;;150.80;;
74278;SDS011;62658;26.660;87.704;2022-08-07T22:26:16;204.10;;;103.70;;
74278;SDS011;62658;26.660;87.704;2022-08-07T22:32:14;196.07;;;97.13;;
74278;SDS011;62658;26.660;87.704;2022-08-07T22:35:03;124.18;;;76.55;;
74278;SDS011;62658;26.660;87.704;2022-08-07T22:40:26;91.32;;;60.03;;
74278;SDS011;62658;26.660;87.704;2022-08-07T22:43:15;50.22;;;39.35;;
74278;SDS011;62658;26.660;87.704;2022-08-07T22:45:51;38.15;;;29.20;;
74278;SDS011;62658;26.660;87.704;2022-08-07T22:51:44;38.92;;;31.52;;
74278;SDS011;62658;26.660;87.704;2022-08-07T23:00:30;31.65;;;25.38;;
74278;SDS011;62658;26.660;87.704;2022-08-07T23:03:14;21.65;;;19.25;;
74278;SDS011;62658;26.660;87.704;2022-08-07T23:12:25;17.42;;;15.70;;
74278;SDS011;62658;26.660;87.704;2022-08-07T23:15:40;14.30;;;12.93;;
74278;SDS011;62658;26.660;87.704;2022-08-07T23:18:31;20.80;;;17.83;;
74278;SDS011;62658;26.660;87.704;2022-08-07T23:21:32;15.65;;;14.18;;
74278;SDS011;62658;26.660;87.704;2022-08-07T23:24:17;37.45;;;33.92;;
74278;SDS011;62658;26.660;87.704;2022-08-07T23:27:47;51.70;;;45.95;;
74278;SDS011;62658;26.660;87.704;2022-08-07T23:40:11;10.85;;;10.07;;
74278;SDS011;62658;26.660;87.704;2022-08-07T23:43:16;9.82;;;9.00;;
74278;SDS011;62658;26.660;87.704;2022-08-07T23:52:01;9.77;;;9.02;;
74278;SDS011;62658;26.660;87.704;2022-08-07T23:54:54;9.55;;;8.73;;
74278;SDS011;62658;26.660;87.704;2022-08-07T23:57:43;8.57;;;7.95;;
